sensor_id;sensor_type;location;lat;lon;timestamp;temperature;humidity
63960;DHT22;50136;51.374;0.096;2023-07-13T00:02:20;15.80;99.90
63960;DHT22;50136;51.374;0.096;2023-07-13T00:12:25;15.80;99.90
63960;DHT22;50136;51.374;0.096;2023-07-13T00:22:28;15.80;99.90
63960;DHT22;50136;51.374;0.096;2023-07-13T00:32:31;15.70;99.90
63960;DHT22;50136;51.374;0.096;2023-07-13T00:42:33;15.70;99.90
63960;DHT22;50136;51.374;0.096;2023-07-13T00:52:39;15.70;99.90
63960;DHT22;50136;51.374;0.096;2023-07-13T01:02:45;15.70;99.90
63960;DHT22;50136;51.374;0.096;2023-07-13T01:12:48;15.60;99.90
63960;DHT22;50136;51.374;0.096;2023-07-13T01:22:52;15.50;99.90
63960;DHT22;50136;51.374;0.096;2023-07-13T01:32:54;15.40;99.90
63960;DHT22;50136;51.374;0.096;2023-07-13T01:42:58;15.30;99.90
63960;DHT22;50136;51.374;0.096;2023-07-13T01:53:00;15.30;99.90
63960;DHT22;50136;51.374;0.096;2023-07-13T02:03:03;15.10;99.90
63960;DHT22;50136;51.374;0.096;2023-07-13T02:13:06;15.10;99.90
63960;DHT22;50136;51.374;0.096;2023-07-13T02:23:10;15.00;99.90
63960;DHT22;50136;51.374;0.096;2023-07-13T02:33:12;15.00;99.90
63960;DHT22;50136;51.374;0.096;2023-07-13T02:43:16;15.00;99.90
63960;DHT22;50136;51.374;0.096;2023-07-13T02:53:18;14.90;99.90
63960;DHT22;50136;51.374;0.096;2023-07-13T03:03:21;14.90;99.90
63960;DHT22;50136;51.374;0.096;2023-07-13T03:13:23;14.80;99.90
63960;DHT22;50136;51.374;0.096;2023-07-13T03:23:26;14.70;99.90
63960;DHT22;50136;51.374;0.096;2023-07-13T03:33:29;14.70;99.90
63960;DHT22;50136;51.374;0.096;2023-07-13T03:43:32;14.60;99.90
63960;DHT22;50136;51.374;0.096;2023-07-13T03:53:37;14.50;99.90
63960;DHT22;50136;51.374;0.096;2023-07-13T04:03:41;14.50;99.90
63960;DHT22;50136;51.374;0.096;2023-07-13T04:13:43;14.40;99.90
63960;DHT22;50136;51.374;0.096;2023-07-13T04:23:47;14.40;99.90
63960;DHT22;50136;51.374;0.096;2023-07-13T04:33:49;14.40;99.90
63960;DHT22;50136;51.374;0.096;2023-07-13T04:43:53;14.50;99.90
63960;DHT22;50136;51.374;0.096;2023-07-13T04:53:57;14.50;99.90
63960;DHT22;50136;51.374;0.096;2023-07-13T05:04:03;14.60;99.90
63960;DHT22;50136;51.374;0.096;2023-07-13T05:14:06;14.70;99.90
63960;DHT22;50136;51.374;0.096;2023-07-13T05:24:09;14.80;99.90
63960;DHT22;50136;51.374;0.096;2023-07-13T05:34:26;15.00;99.90
63960;DHT22;50136;51.374;0.096;2023-07-13T05:44:29;15.10;99.90
63960;DHT22;50136;51.374;0.096;2023-07-13T05:54:31;15.30;99.90
63960;DHT22;50136;51.374;0.096;2023-07-13T06:04:34;15.50;99.90
63960;DHT22;50136;51.374;0.096;2023-07-13T06:14:36;15.90;99.90
63960;DHT22;50136;51.374;0.096;2023-07-13T06:24:40;16.10;99.90
63960;DHT22;50136;51.374;0.096;2023-07-13T06:34:42;16.60;99.90
63960;DHT22;50136;51.374;0.096;2023-07-13T06:44:46;17.10;99.90
63960;DHT22;50136;51.374;0.096;2023-07-13T06:54:48;17.30;99.90
63960;DHT22;50136;51.374;0.096;2023-07-13T07:04:51;17.30;99.90
63960;DHT22;50136;51.374;0.096;2023-07-13T07:14:53;17.40;99.90
63960;DHT22;50136;51.374;0.096;2023-07-13T07:24:57;17.60;99.90
63960;DHT22;50136;51.374;0.096;2023-07-13T07:34:59;18.20;99.90
63960;DHT22;50136;51.374;0.096;2023-07-13T07:45:03;18.70;99.90
63960;DHT22;50136;51.374;0.096;2023-07-13T07:55:07;18.80;99.90
63960;DHT22;50136;51.374;0.096;2023-07-13T08:05:14;19.40;99.90
63960;DHT22;50136;51.374;0.096;2023-07-13T08:15:19;19.20;99.90
63960;DHT22;50136;51.374;0.096;2023-07-13T08:25:22;19.20;99.90
63960;DHT22;50136;51.374;0.096;2023-07-13T08:35:24;19.00;99.90
63960;DHT22;50136;51.374;0.096;2023-07-13T08:45:36;19.10;99.90
63960;DHT22;50136;51.374;0.096;2023-07-13T08:55:40;19.90;99.90
63960;DHT22;50136;51.374;0.096;2023-07-13T09:05:48;21.40;99.90
63960;DHT22;50136;51.374;0.096;2023-07-13T09:15:51;21.00;99.90
63960;DHT22;50136;51.374;0.096;2023-07-13T09:26:00;23.60;98.40
63960;DHT22;50136;51.374;0.096;2023-07-13T09:36:18;23.40;97.50
63960;DHT22;50136;51.374;0.096;2023-07-13T09:46:22;25.00;95.70
63960;DHT22;50136;51.374;0.096;2023-07-13T09:56:28;25.70;94.60
63960;DHT22;50136;51.374;0.096;2023-07-13T10:06:31;25.40;95.20
63960;DHT22;50136;51.374;0.096;2023-07-13T10:16:34;25.10;95.80
63960;DHT22;50136;51.374;0.096;2023-07-13T10:37:46;24.90;93.60
63960;DHT22;50136;51.374;0.096;2023-07-13T10:47:51;24.90;94.90
63960;DHT22;50136;51.374;0.096;2023-07-13T10:58:00;24.40;95.40
63960;DHT22;50136;51.374;0.096;2023-07-13T11:08:13;22.90;97.60
63960;DHT22;50136;51.374;0.096;2023-07-13T11:18:23;23.00;97.90
63960;DHT22;50136;51.374;0.096;2023-07-13T11:28:29;24.70;96.60
63960;DHT22;50136;51.374;0.096;2023-07-13T11:38:37;24.70;95.20
63960;DHT22;50136;51.374;0.096;2023-07-13T11:48:39;24.60;95.20
63960;DHT22;50136;51.374;0.096;2023-07-13T11:58:43;23.90;95.20
63960;DHT22;50136;51.374;0.096;2023-07-13T12:08:45;23.60;95.00
63960;DHT22;50136;51.374;0.096;2023-07-13T12:18:49;23.50;95.20
63960;DHT22;50136;51.374;0.096;2023-07-13T12:28:55;22.70;98.40
63960;DHT22;50136;51.374;0.096;2023-07-13T12:39:04;21.10;99.90
63960;DHT22;50136;51.374;0.096;2023-07-13T12:49:07;21.00;99.90
63960;DHT22;50136;51.374;0.096;2023-07-13T12:59:22;21.20;99.90
63960;DHT22;50136;51.374;0.096;2023-07-13T13:09:24;22.20;99.90
63960;DHT22;50136;51.374;0.096;2023-07-13T13:19:29;22.70;99.90
63960;DHT22;50136;51.374;0.096;2023-07-13T13:29:31;22.00;99.90
63960;DHT22;50136;51.374;0.096;2023-07-13T13:39:36;22.40;99.90
63960;DHT22;50136;51.374;0.096;2023-07-13T13:49:39;23.40;99.40
63960;DHT22;50136;51.374;0.096;2023-07-13T13:59:42;23.80;98.60
63960;DHT22;50136;51.374;0.096;2023-07-13T14:09:44;23.40;98.50
63960;DHT22;50136;51.374;0.096;2023-07-13T14:19:48;23.10;98.90
63960;DHT22;50136;51.374;0.096;2023-07-13T14:29:50;22.70;98.60
63960;DHT22;50136;51.374;0.096;2023-07-13T14:39:53;23.20;98.20
63960;DHT22;50136;51.374;0.096;2023-07-13T14:49:55;23.20;96.10
63960;DHT22;50136;51.374;0.096;2023-07-13T14:59:59;23.40;96.30
63960;DHT22;50136;51.374;0.096;2023-07-13T15:10:01;23.90;95.40
63960;DHT22;50136;51.374;0.096;2023-07-13T15:20:06;24.70;94.30
63960;DHT22;50136;51.374;0.096;2023-07-13T15:30:15;24.30;94.80
63960;DHT22;50136;51.374;0.096;2023-07-13T15:40:19;24.50;94.90
63960;DHT22;50136;51.374;0.096;2023-07-13T15:50:23;23.80;94.90
63960;DHT22;50136;51.374;0.096;2023-07-13T16:00:30;24.00;94.90
63960;DHT22;50136;51.374;0.096;2023-07-13T16:10:35;24.30;93.70
63960;DHT22;50136;51.374;0.096;2023-07-13T16:20:39;24.20;94.10
63960;DHT22;50136;51.374;0.096;2023-07-13T16:30:43;24.20;94.10
63960;DHT22;50136;51.374;0.096;2023-07-13T16:40:47;23.70;94.00
63960;DHT22;50136;51.374;0.096;2023-07-13T16:50:52;22.80;95.20
63960;DHT22;50136;51.374;0.096;2023-07-13T17:00:56;22.30;94.80
63960;DHT22;50136;51.374;0.096;2023-07-13T17:11:00;22.10;95.30
63960;DHT22;50136;51.374;0.096;2023-07-13T17:21:05;21.90;95.70
63960;DHT22;50136;51.374;0.096;2023-07-13T17:31:11;21.60;97.50
63960;DHT22;50136;51.374;0.096;2023-07-13T18:03:00;21.70;97.20
63960;DHT22;50136;51.374;0.096;2023-07-13T18:13:03;21.60;96.90
63960;DHT22;50136;51.374;0.096;2023-07-13T18:23:21;21.30;96.70
63960;DHT22;50136;51.374;0.096;2023-07-13T18:33:26;21.10;97.10
63960;DHT22;50136;51.374;0.096;2023-07-13T18:43:30;20.70;97.80
63960;DHT22;50136;51.374;0.096;2023-07-13T18:53:32;20.40;99.30
63960;DHT22;50136;51.374;0.096;2023-07-13T19:03:35;19.80;99.90
63960;DHT22;50136;51.374;0.096;2023-07-13T19:13:37;19.20;99.90
63960;DHT22;50136;51.374;0.096;2023-07-13T19:23:43;18.90;99.90
63960;DHT22;50136;51.374;0.096;2023-07-13T19:33:46;18.70;99.90
63960;DHT22;50136;51.374;0.096;2023-07-13T19:43:51;18.70;99.90
63960;DHT22;50136;51.374;0.096;2023-07-13T19:54:09;18.70;99.90
63960;DHT22;50136;51.374;0.096;2023-07-13T20:04:42;18.50;99.90
63960;DHT22;50136;51.374;0.096;2023-07-13T20:14:58;18.30;99.90
63960;DHT22;50136;51.374;0.096;2023-07-13T20:25:12;18.10;99.90
63960;DHT22;50136;51.374;0.096;2023-07-13T20:35:26;17.90;99.90
63960;DHT22;50136;51.374;0.096;2023-07-13T20:45:33;17.70;99.90
63960;DHT22;50136;51.374;0.096;2023-07-13T20:55:36;17.60;99.90
63960;DHT22;50136;51.374;0.096;2023-07-13T21:05:42;17.40;99.90
63960;DHT22;50136;51.374;0.096;2023-07-13T21:15:45;17.30;99.90
63960;DHT22;50136;51.374;0.096;2023-07-13T21:25:48;17.20;99.90
63960;DHT22;50136;51.374;0.096;2023-07-13T21:35:51;17.10;99.90
63960;DHT22;50136;51.374;0.096;2023-07-13T21:45:55;17.00;99.90
63960;DHT22;50136;51.374;0.096;2023-07-13T21:55:58;16.90;99.90
63960;DHT22;50136;51.374;0.096;2023-07-13T22:06:03;16.70;99.90
63960;DHT22;50136;51.374;0.096;2023-07-13T22:16:08;16.70;99.90
63960;DHT22;50136;51.374;0.096;2023-07-13T22:26:20;16.60;99.90
63960;DHT22;50136;51.374;0.096;2023-07-13T22:36:23;16.50;99.90
63960;DHT22;50136;51.374;0.096;2023-07-13T22:46:31;16.40;99.90
63960;DHT22;50136;51.374;0.096;2023-07-13T22:56:33;16.40;99.90
63960;DHT22;50136;51.374;0.096;2023-07-13T23:06:37;16.40;99.90
63960;DHT22;50136;51.374;0.096;2023-07-13T23:16:40;16.30;99.90
63960;DHT22;50136;51.374;0.096;2023-07-13T23:26:43;16.20;99.90
63960;DHT22;50136;51.374;0.096;2023-07-13T23:36:45;16.20;99.90
63960;DHT22;50136;51.374;0.096;2023-07-13T23:46:51;16.20;99.90
63960;DHT22;50136;51.374;0.096;2023-07-13T23:56:53;16.10;99.90
